Terminal Aerodrome Forecast
Issued by NWS Columbia, SC

Home | Current Version | Previous Version | Text Only | Print | Product List | Glossary On
Versions: 1 2 3 4 5 6 7 8 9 10 11 12 13 14 15 16 17 18 19 20 21 22 23 24 25 26 27 28 29 30 31 32 33
000
FTUS42 KCAE 190200 AAA
TAFCAE
TAF AMD
KCAE 190254Z 1903/1924 00000KT P6SM BKN015 OVC040
     FM190600 00000KT 6SM BR OVC006
     FM190800 10005KT 4SM BR VCSH OVC006
     FM191300 13010KT 2SM SHRA SCT006 OVC010
     FM191800 18013G20KT 5SM -SHRA BR BKN025 OVC040=

USA.gov is the U.S. government's official web portal to all federal, state and local government web resources and services.